Andrew, Iowa
Current Conditions -  °F | °C
As of 4:53 PM on Monday 24 Nov 2014 (Local Time) from KDBQ Reporting Station
Overcast Overcast  
Wind Chill: -15°   Ceiling: 1500
Heat Index: -6°   Visibility: 9mi
Dew Point: -8°   Wind: 23mph
Humidity: 85%   Direction: 270°W
Pressure: 29.63"   Gusts: 32mph
Location:  42.15°N, 90.59°W
Report Text: KDBQ 242253Z 27020G28KT 9SM OVC015 M06/M08 A2963 RMK AO2 PK WND 28029/2205 SNB31E50 SLP046 P0000 T10611083
Loading
Personal Weather Stations






























Interactive Weather Map New forecast layout! Learn more

10-Day Weather Forecast

Advertisements
Track Severe Weather on mobile